Time;durP1;ratioP1;P1;durP2;ratioP2;P2;SDS_P1;SDS_P2;PMS_P1;PMS_P2;Temp;Humidity;BMP_temperature;BMP_pressure;BME280_temperature;BME280_humidity;BME280_pressure;Samples;Min_cycle;Max_cycle;Signal;HPM_P1;HPM_P2
2022/09/16 00:00:43;;;;;;;8.10;2.37;;;11.10;92.50;;;;;;5035434;28;20181;-89
2022/09/16 00:03:10;;;;;;;7.20;2.63;;;11.00;92.60;;;;;;5035925;28;20272;-88
2022/09/16 00:05:41;;;;;;;13.33;3.33;;;11.10;92.70;;;;;;5035477;28;20647;-90
2022/09/16 00:08:07;;;;;;;8.37;2.90;;;11.20;92.70;;;;;;5036293;28;20231;-89
2022/09/16 00:10:34;;;;;;;10.00;3.23;;;11.20;92.70;;;;;;5035331;28;20173;-89
2022/09/16 00:12:59;;;;;;;16.33;3.23;;;11.20;92.70;;;;;;5035317;28;20654;-89
2022/09/16 00:15:25;;;;;;;13.23;4.13;;;11.20;92.70;;;;;;5035179;28;20222;-89
2022/09/16 00:17:51;;;;;;;30.00;5.30;;;11.30;92.80;;;;;;5035193;28;20223;-89
2022/09/16 00:20:16;;;;;;;23.87;5.27;;;11.30;92.80;;;;;;5035254;28;20211;-88
2022/09/16 00:22:42;;;;;;;11.97;3.13;;;11.20;92.80;;;;;;5036915;28;20239;-88
2022/09/16 00:25:08;;;;;;;7.63;2.73;;;11.30;92.90;;;;;;5035183;28;20176;-90
2022/09/16 00:27:33;;;;;;;13.70;3.17;;;11.10;92.80;;;;;;5035872;28;20209;-91
2022/09/16 00:29:59;;;;;;;13.70;3.33;;;11.10;92.90;;;;;;5035243;28;20188;-90
2022/09/16 00:32:24;;;;;;;10.30;3.10;;;11.00;92.80;;;;;;5035020;28;20658;-88
2022/09/16 00:34:50;;;;;;;15.47;2.93;;;11.00;92.70;;;;;;5035466;28;20177;-90
2022/09/16 00:37:16;;;;;;;8.23;2.40;;;10.90;92.80;;;;;;5035219;28;20200;-87
2022/09/16 00:39:42;;;;;;;11.33;3.10;;;11.00;92.80;;;;;;5035352;28;20197;-88
2022/09/16 00:42:11;;;;;;;13.70;2.70;;;11.00;92.80;;;;;;5035432;28;20212;-88
2022/09/16 00:45:12;;;;;;;8.97;3.40;;;11.00;92.80;;;;;;5035158;28;20647;-87
2022/09/16 00:47:43;;;;;;;13.20;2.90;;;11.10;92.80;;;;;;5034409;28;20208;-88
2022/09/16 00:50:39;;;;;;;11.63;3.17;;;11.10;92.90;;;;;;5036007;28;20535;-88
2022/09/16 00:53:11;;;;;;;7.03;2.40;;;11.00;93.00;;;;;;5035245;28;20176;-88
2022/09/16 00:55:37;;;;;;;14.37;2.70;;;11.00;93.00;;;;;;5034736;28;20179;-88
2022/09/16 00:58:28;;;;;;;6.50;2.07;;;11.00;93.10;;;;;;5035490;28;20231;-88
2022/09/16 01:00:54;;;;;;;5.67;1.80;;;10.90;92.90;;;;;;5035292;28;20180;-88
2022/09/16 01:03:20;;;;;;;11.87;2.30;;;10.90;92.90;;;;;;5035862;28;20185;-88
2022/09/16 01:05:46;;;;;;;10.07;2.67;;;10.80;92.80;;;;;;5035985;28;20189;-88
2022/09/16 01:08:12;;;;;;;8.83;2.47;;;10.80;92.80;;;;;;5035635;28;20215;-87
2022/09/16 01:10:40;;;;;;;8.93;3.20;;;10.80;92.60;;;;;;5036316;28;20643;-87
2022/09/16 01:13:08;;;;;;;6.33;2.50;;;10.80;92.60;;;;;;5035707;28;20177;-88
2022/09/16 01:16:04;;;;;;;5.27;2.60;;;10.80;92.60;;;;;;5036681;28;20520;-87
2022/09/16 01:18:39;;;;;;;11.17;2.40;;;10.80;92.50;;;;;;5035421;28;20200;-88
2022/09/16 01:21:23;;;;;;;6.90;2.43;;;10.80;92.50;;;;;;5036435;28;20575;-88
2022/09/16 01:24:06;;;;;;;7.37;2.70;;;10.90;92.50;;;;;;5036180;28;20153;-88
2022/09/16 01:27:12;;;;;;;7.63;2.77;;;10.90;92.30;;;;;;5035054;28;20205;-88
2022/09/16 01:30:12;;;;;;;12.10;2.80;;;10.90;92.20;;;;;;5036150;28;20165;-89
2022/09/16 01:32:56;;;;;;;15.37;3.13;;;10.80;92.20;;;;;;5034619;28;20176;-88
2022/09/16 01:35:57;;;;;;;9.10;3.37;;;10.80;92.30;;;;;;5034599;28;20271;-88
2022/09/16 01:39:15;;;;;;;16.03;3.80;;;10.80;92.40;;;;;;5029653;28;20188;-89
2022/09/16 01:41:49;;;;;;;12.37;4.47;;;10.80;92.50;;;;;;5011672;28;20200;-89
2022/09/16 01:44:34;;;;;;;8.30;3.27;;;10.70;92.60;;;;;;5035444;28;20226;-88
2022/09/16 01:47:17;;;;;;;10.27;3.93;;;10.70;92.80;;;;;;5035350;28;20213;-88
2022/09/16 01:49:55;;;;;;;9.03;3.40;;;10.80;92.90;;;;;;5033770;28;20176;-88
2022/09/16 01:52:29;;;;;;;16.43;3.60;;;10.80;93.00;;;;;;5034104;28;20263;-88
2022/09/16 01:55:00;;;;;;;10.47;3.67;;;10.80;93.00;;;;;;5034270;28;20226;-88
2022/09/16 01:57:46;;;;;;;6.57;2.70;;;10.80;93.00;;;;;;5034707;28;20201;-88
2022/09/16 02:00:13;;;;;;;12.53;3.60;;;10.70;93.10;;;;;;5029893;28;20666;-88
2022/09/16 02:03:00;;;;;;;13.90;5.00;;;10.80;93.20;;;;;;5033440;28;20185;-88
2022/09/16 02:05:47;;;;;;;14.33;3.80;;;10.70;93.30;;;;;;5033275;28;20227;-89
2022/09/16 02:08:19;;;;;;;9.83;3.23;;;10.80;93.30;;;;;;5033224;28;20200;-89
2022/09/16 02:10:50;;;;;;;8.30;3.07;;;10.80;93.40;;;;;;5033330;28;20566;-88
2022/09/16 02:13:25;;;;;;;12.20;3.37;;;10.90;93.40;;;;;;5033515;28;20264;-88
2022/09/16 02:15:54;;;;;;;13.57;3.30;;;11.00;93.50;;;;;;5035500;28;20202;-88
2022/09/16 02:18:25;;;;;;;13.43;2.87;;;11.00;93.40;;;;;;5034800;28;20267;-87
2022/09/16 02:20:54;;;;;;;6.93;3.10;;;10.90;93.40;;;;;;5035481;28;20285;-88
2022/09/16 02:23:25;;;;;;;10.23;2.87;;;10.90;93.30;;;;;;5034046;28;20687;-88
2022/09/16 02:25:53;;;;;;;7.60;2.40;;;10.90;93.30;;;;;;5035853;28;20161;-88
2022/09/16 02:28:28;;;;;;;8.37;2.60;;;10.80;93.30;;;;;;5033691;28;20647;-89
2022/09/16 02:30:57;;;;;;;14.30;4.40;;;10.80;93.40;;;;;;5034152;28;20180;-87
2022/09/16 02:33:29;;;;;;;8.73;2.40;;;10.80;93.30;;;;;;5033911;28;20222;-88
2022/09/16 02:35:55;;;;;;;11.37;2.40;;;10.80;93.30;;;;;;5033770;28;20205;-88
2022/09/16 02:38:32;;;;;;;10.97;2.33;;;10.80;93.10;;;;;;5033950;28;20185;-88
2022/09/16 02:40:59;;;;;;;4.53;2.03;;;10.70;92.90;;;;;;5034044;28;20184;-88
2022/09/16 02:43:26;;;;;;;4.73;1.93;;;10.80;92.80;;;;;;5034664;28;20177;-88
2022/09/16 02:46:05;;;;;;;6.50;2.13;;;10.80;92.80;;;;;;5033562;28;20287;-88
2022/09/16 02:48:48;;;;;;;9.30;2.27;;;10.90;92.70;;;;;;5033248;28;20224;-87
2022/09/16 02:51:43;;;;;;;6.37;2.37;;;10.90;92.50;;;;;;5033777;28;20196;-88
2022/09/16 02:54:46;;;;;;;10.77;2.80;;;10.90;92.50;;;;;;5034868;28;20161;-89
2022/09/16 02:57:13;;;;;;;12.83;2.80;;;10.80;92.50;;;;;;5034292;28;20196;-89
2022/09/16 02:59:38;;;;;;;6.47;3.20;;;10.70;92.60;;;;;;5033119;28;20609;-88
2022/09/16 03:02:04;;;;;;;8.37;2.90;;;10.70;92.70;;;;;;5034198;28;20191;-88
2022/09/16 03:04:30;;;;;;;7.67;2.97;;;10.70;92.90;;;;;;5033105;28;20218;-88
2022/09/16 03:06:55;;;;;;;8.73;3.20;;;10.60;92.90;;;;;;5032921;28;20197;-88
2022/09/16 03:09:23;;;;;;;13.87;3.37;;;10.60;93.10;;;;;;5033069;28;20640;-88
2022/09/16 03:12:00;;;;;;;7.67;4.13;;;10.60;93.30;;;;;;5033021;28;20172;-88
2022/09/16 03:14:45;;;;;;;8.43;2.60;;;10.60;93.40;;;;;;5032970;28;20169;-89
2022/09/16 03:17:22;;;;;;;14.63;3.07;;;10.60;93.50;;;;;;5032825;28;20279;-89
2022/09/16 03:20:16;;;;;;;6.50;2.20;;;10.60;93.50;;;;;;5034124;28;20730;-89
2022/09/16 03:23:00;;;;;;;10.63;3.10;;;10.60;93.60;;;;;;5032927;28;20180;-91
2022/09/16 03:25:28;;;;;;;9.33;2.73;;;10.60;93.60;;;;;;5032626;28;20594;-89
2022/09/16 03:28:16;;;;;;;4.87;2.50;;;10.70;93.60;;;;;;5032478;28;20208;-89
2022/09/16 03:31:10;;;;;;;15.07;2.67;;;10.70;93.60;;;;;;5034660;28;20207;-88
2022/09/16 03:33:56;;;;;;;11.07;3.00;;;10.70;93.70;;;;;;5036525;28;20184;-88
2022/09/16 03:36:28;;;;;;;6.50;2.80;;;10.70;93.70;;;;;;5036786;28;20203;-88
2022/09/16 03:38:55;;;;;;;8.60;3.20;;;10.80;93.70;;;;;;5038214;28;20180;-88
2022/09/16 03:41:21;;;;;;;10.37;3.03;;;10.80;93.80;;;;;;5037960;28;20168;-90
2022/09/16 03:43:57;;;;;;;9.43;3.07;;;10.80;93.80;;;;;;5038294;28;20177;-89
2022/09/16 03:46:24;;;;;;;6.67;2.83;;;10.80;93.80;;;;;;5039105;28;20192;-89
2022/09/16 03:48:49;;;;;;;11.97;3.10;;;10.70;93.80;;;;;;5038705;28;20196;-88
2022/09/16 03:51:15;;;;;;;8.87;2.80;;;10.70;93.60;;;;;;5039873;28;20177;-89
2022/09/16 03:53:41;;;;;;;7.43;3.03;;;10.70;93.60;;;;;;5040325;28;20177;-88
2022/09/16 03:56:06;;;;;;;11.43;2.73;;;10.70;93.40;;;;;;5038842;28;20236;-88
2022/09/16 03:58:32;;;;;;;11.73;3.97;;;10.60;93.30;;;;;;5038088;28;20196;-88
2022/09/16 04:00:57;;;;;;;13.57;2.70;;;10.50;93.10;;;;;;5038049;28;20203;-88
2022/09/16 04:03:23;;;;;;;10.67;2.50;;;10.60;92.80;;;;;;5038526;28;20259;-88
2022/09/16 04:05:53;;;;;;;13.87;4.10;;;10.60;92.70;;;;;;5038277;28;20180;-88
2022/09/16 04:08:18;;;;;;;8.13;2.30;;;10.50;92.70;;;;;;5038095;28;20204;-89
2022/09/16 04:10:58;;;;;;;5.50;2.50;;;10.50;92.80;;;;;;5039257;28;20184;-88
2022/09/16 04:13:24;;;;;;;8.20;2.43;;;10.40;92.90;;;;;;5036938;28;20187;-89
2022/09/16 04:15:50;;;;;;;4.70;2.17;;;10.40;93.00;;;;;;5037153;28;20180;-89
2022/09/16 04:18:16;;;;;;;4.00;2.50;;;10.40;92.90;;;;;;5036524;28;20655;-88
2022/09/16 04:20:42;;;;;;;9.80;3.33;;;10.40;92.80;;;;;;5036031;28;20211;-89
2022/09/16 04:23:08;;;;;;;4.83;2.53;;;10.40;92.90;;;;;;5036721;28;20549;-89
2022/09/16 04:25:33;;;;;;;12.33;3.60;;;10.30;92.90;;;;;;5037214;28;20181;-91
2022/09/16 04:27:59;;;;;;;6.53;2.93;;;10.40;92.90;;;;;;5036227;28;20208;-88
2022/09/16 04:30:25;;;;;;;7.93;3.40;;;10.40;93.00;;;;;;5036999;28;20177;-89
2022/09/16 04:32:55;;;;;;;6.23;3.63;;;10.50;93.00;;;;;;5036742;28;20177;-88
2022/09/16 04:35:21;;;;;;;10.27;3.67;;;10.50;93.10;;;;;;5037888;28;20179;-89
2022/09/16 04:37:47;;;;;;;11.93;3.70;;;10.60;93.20;;;;;;5037296;28;20196;-89
2022/09/16 04:40:13;;;;;;;7.57;2.70;;;10.60;93.20;;;;;;5039208;28;20211;-88
2022/09/16 04:42:38;;;;;;;10.53;2.80;;;10.50;93.10;;;;;;5039363;28;20216;-88
2022/09/16 04:45:05;;;;;;;10.77;3.77;;;10.50;93.20;;;;;;5040369;28;20177;-88
2022/09/16 04:47:30;;;;;;;14.13;3.93;;;10.50;93.10;;;;;;5039040;28;20205;-88
2022/09/16 04:49:56;;;;;;;8.93;2.80;;;10.40;92.90;;;;;;5041152;28;20180;-88
2022/09/16 04:52:21;;;;;;;10.13;2.90;;;10.40;93.00;;;;;;5038931;28;20184;-89
2022/09/16 04:54:47;;;;;;;9.93;2.87;;;10.40;93.10;;;;;;5038448;28;20661;-88
2022/09/16 04:57:13;;;;;;;18.70;3.50;;;10.50;93.00;;;;;;5038861;28;20208;-87
2022/09/16 04:59:38;;;;;;;13.10;2.97;;;10.50;92.90;;;;;;5039751;28;20589;-89
2022/09/16 05:02:04;;;;;;;9.20;3.13;;;10.50;92.90;;;;;;5038090;28;20185;-88
2022/09/16 05:04:29;;;;;;;11.40;3.10;;;10.50;92.90;;;;;;5038674;28;20259;-89
2022/09/16 05:06:55;;;;;;;8.20;2.97;;;10.50;92.90;;;;;;5037922;28;20201;-89
2022/09/16 05:09:21;;;;;;;12.20;3.50;;;10.60;92.90;;;;;;5036933;28;20607;-89
2022/09/16 05:11:47;;;;;;;7.30;2.50;;;10.60;93.00;;;;;;5035937;28;20180;-88
2022/09/16 05:14:15;;;;;;;7.80;2.47;;;10.60;93.00;;;;;;5038482;28;20592;-88
2022/09/16 05:16:41;;;;;;;6.47;2.47;;;10.60;92.90;;;;;;5035706;28;20200;-87
2022/09/16 05:19:07;;;;;;;9.13;2.63;;;10.50;92.80;;;;;;5036841;28;20657;-89
2022/09/16 05:21:35;;;;;;;7.07;2.87;;;10.50;92.50;;;;;;5037220;28;20207;-88
2022/09/16 05:24:02;;;;;;;8.97;1.50;;;10.50;92.40;;;;;;5036224;28;20192;-89
2022/09/16 05:26:30;;;;;;;10.70;2.30;;;10.50;92.10;;;;;;5036989;28;20279;-88
2022/09/16 05:28:58;;;;;;;7.87;2.27;;;10.50;91.80;;;;;;5035624;28;20661;-89
2022/09/16 05:31:26;;;;;;;6.10;2.00;;;10.50;91.90;;;;;;5037385;28;20634;-90
2022/09/16 05:34:03;;;;;;;8.83;2.80;;;10.50;91.80;;;;;;5035833;28;20211;-89
2022/09/16 05:36:32;;;;;;;18.30;2.93;;;10.50;91.90;;;;;;5036830;28;20200;-90
2022/09/16 05:38:58;;;;;;;13.80;2.80;;;10.50;92.00;;;;;;5034739;28;20188;-89
2022/09/16 05:41:23;;;;;;;11.80;2.63;;;10.50;92.30;;;;;;5034837;28;20191;-89
2022/09/16 05:43:49;;;;;;;15.77;4.37;;;10.60;92.50;;;;;;5035403;28;20181;-87
2022/09/16 05:46:18;;;;;;;10.50;2.20;;;10.60;92.80;;;;;;5034526;28;20260;-87
2022/09/16 05:48:44;;;;;;;13.87;2.60;;;10.60;92.80;;;;;;5035036;28;20200;-89
2022/09/16 05:51:13;;;;;;;13.10;3.00;;;10.70;92.90;;;;;;5034387;28;20177;-89
2022/09/16 05:53:39;;;;;;;10.80;2.60;;;10.60;92.80;;;;;;5033287;28;20173;-90
2022/09/16 05:56:08;;;;;;;9.83;2.17;;;10.50;92.80;;;;;;5035118;28;20268;-89
2022/09/16 05:58:35;;;;;;;7.33;2.40;;;10.60;92.80;;;;;;5033539;28;20176;-91
2022/09/16 06:01:04;;;;;;;6.43;2.30;;;10.60;92.80;;;;;;5033851;28;20732;-89
2022/09/16 06:03:29;;;;;;;8.90;2.40;;;10.60;92.80;;;;;;5033867;28;20188;-89
2022/09/16 06:06:03;;;;;;;8.13;2.33;;;10.60;92.80;;;;;;5033638;28;20200;-89
2022/09/16 06:08:32;;;;;;;9.40;2.17;;;10.70;92.80;;;;;;5035401;28;20655;-89
2022/09/16 06:11:03;;;;;;;9.80;2.40;;;10.70;92.40;;;;;;5033592;28;20207;-89
2022/09/16 06:13:29;;;;;;;12.97;2.90;;;10.80;92.00;;;;;;5035528;28;20247;-91
2022/09/16 06:15:55;;;;;;;12.60;2.97;;;10.80;91.70;;;;;;5033257;28;20642;-90
2022/09/16 06:18:22;;;;;;;8.13;2.90;;;10.80;91.40;;;;;;5034948;28;20177;-89
2022/09/16 06:20:48;;;;;;;7.63;2.07;;;10.70;91.50;;;;;;5033838;28;20689;-89
2022/09/16 06:23:14;;;;;;;15.60;2.63;;;10.80;91.60;;;;;;5034686;28;20180;-89
2022/09/16 06:25:40;;;;;;;11.60;2.13;;;10.80;91.60;;;;;;5033797;28;20180;-89
2022/09/16 06:28:06;;;;;;;10.27;2.10;;;11.00;91.70;;;;;;5033275;28;20200;-90
2022/09/16 06:30:31;;;;;;;10.97;2.10;;;11.10;91.40;;;;;;5033098;28;20734;-90
2022/09/16 06:32:57;;;;;;;13.30;2.50;;;11.20;91.30;;;;;;5034536;28;20169;-89
2022/09/16 06:35:23;;;;;;;9.43;2.60;;;11.20;91.40;;;;;;5034304;28;20184;-89
2022/09/16 06:37:48;;;;;;;7.80;2.27;;;11.20;91.10;;;;;;5032721;28;20196;-91
2022/09/16 06:40:14;;;;;;;12.03;2.40;;;11.30;90.70;;;;;;5033413;28;20270;-89
2022/09/16 06:42:40;;;;;;;12.40;2.40;;;11.30;91.00;;;;;;5032663;28;20185;-89
2022/09/16 06:45:06;;;;;;;11.07;2.87;;;11.20;91.10;;;;;;5032394;28;20200;-91
2022/09/16 06:47:34;;;;;;;11.10;1.90;;;11.20;91.20;;;;;;5032610;28;20204;-90
2022/09/16 06:50:00;;;;;;;9.37;2.57;;;11.10;90.60;;;;;;5032746;28;20234;-90
2022/09/16 06:52:26;;;;;;;6.63;1.87;;;11.20;90.40;;;;;;5032407;28;20173;-91
2022/09/16 06:54:51;;;;;;;8.33;2.57;;;11.10;90.10;;;;;;5032234;28;20177;-89
2022/09/16 06:57:19;;;;;;;8.90;2.13;;;11.30;90.10;;;;;;5032200;28;20200;-90
2022/09/16 06:59:45;;;;;;;12.20;2.57;;;11.50;89.60;;;;;;5032235;28;20187;-91
2022/09/16 07:02:10;;;;;;;9.20;1.93;;;11.60;88.90;;;;;;5033299;28;20187;-88
2022/09/16 07:04:36;;;;;;;17.23;2.07;;;11.60;89.10;;;;;;5031891;28;20176;-89
2022/09/16 07:07:02;;;;;;;12.33;2.10;;;11.50;88.80;;;;;;5033493;28;20204;-90
2022/09/16 07:09:28;;;;;;;5.90;2.10;;;11.40;89.10;;;;;;5032291;28;20168;-88
2022/09/16 07:11:54;;;;;;;10.90;2.27;;;11.50;89.30;;;;;;5033469;28;20173;-89
2022/09/16 07:14:20;;;;;;;8.73;2.27;;;11.60;89.40;;;;;;5032141;28;20211;-90
2022/09/16 07:16:45;;;;;;;13.47;2.37;;;11.80;89.30;;;;;;5033320;28;20199;-90
2022/09/16 07:19:11;;;;;;;4.77;1.30;;;12.00;88.80;;;;;;5032099;28;20730;-90
2022/09/16 07:21:36;;;;;;;10.73;2.00;;;12.00;87.90;;;;;;5032077;28;20179;-89
2022/09/16 07:24:02;;;;;;;13.93;2.23;;;12.00;88.10;;;;;;5032011;28;20664;-91
2022/09/16 07:26:30;;;;;;;16.43;2.73;;;12.10;88.10;;;;;;5031858;28;20623;-89
2022/09/16 07:28:58;;;;;;;7.33;1.90;;;12.20;87.50;;;;;;5032024;28;20291;-91
2022/09/16 07:31:26;;;;;;;15.57;2.07;;;12.30;87.10;;;;;;5033193;28;20169;-90
2022/09/16 07:33:54;;;;;;;13.73;2.20;;;12.40;87.00;;;;;;5032306;28;20172;-91
2022/09/16 07:36:26;;;;;;;7.80;2.30;;;12.60;86.80;;;;;;5031780;28;20203;-92
2022/09/16 07:38:54;;;;;;;11.37;2.37;;;12.70;87.10;;;;;;5033092;28;20203;-88
2022/09/16 07:41:21;;;;;;;10.67;1.83;;;12.30;86.30;;;;;;5031949;28;20184;-91
2022/09/16 07:43:48;;;;;;;10.83;1.80;;;12.00;85.50;;;;;;5036284;28;20297;-92
2022/09/16 07:46:15;;;;;;;9.43;1.53;;;11.80;86.00;;;;;;5034655;28;20204;-91
2022/09/16 07:48:41;;;;;;;10.23;1.87;;;11.90;85.80;;;;;;5032655;28;20201;-90
2022/09/16 07:51:18;;;;;;;12.83;2.47;;;12.10;86.70;;;;;;5032574;28;20651;-90
2022/09/16 07:53:45;;;;;;;10.73;1.80;;;12.30;86.70;;;;;;5033997;28;20558;-90
2022/09/16 07:56:14;;;;;;;9.30;1.97;;;12.40;86.60;;;;;;5032000;28;20733;-90
2022/09/16 07:58:40;;;;;;;12.57;2.80;;;12.50;86.70;;;;;;5031871;28;20180;-90
2022/09/16 08:01:07;;;;;;;7.07;2.20;;;12.50;86.80;;;;;;5032232;28;20177;-90
2022/09/16 08:03:34;;;;;;;10.97;2.73;;;12.60;86.10;;;;;;5031628;28;20613;-91
2022/09/16 08:06:02;;;;;;;7.37;1.60;;;12.70;85.90;;;;;;5031654;28;20228;-90
2022/09/16 08:08:28;;;;;;;15.17;2.57;;;12.70;85.10;;;;;;5032294;28;20203;-89
2022/09/16 08:10:55;;;;;;;16.83;1.90;;;13.00;85.50;;;;;;5032200;28;20709;-91
2022/09/16 08:13:21;;;;;;;8.30;2.20;;;12.80;85.20;;;;;;5032244;28;20215;-90
2022/09/16 08:15:46;;;;;;;7.87;1.90;;;12.70;85.80;;;;;;5032602;28;20173;-91
2022/09/16 08:18:12;;;;;;;9.07;2.37;;;12.60;85.80;;;;;;5035401;28;20550;-90
2022/09/16 08:20:37;;;;;;;13.57;2.37;;;12.60;86.80;;;;;;5036683;28;20180;-91
2022/09/16 08:23:03;;;;;;;9.47;2.20;;;12.60;87.20;;;;;;5037833;28;20314;-91
2022/09/16 08:25:28;;;;;;;7.67;2.20;;;12.60;87.50;;;;;;5035681;28;20610;-90
2022/09/16 08:27:54;;;;;;;7.10;2.00;;;12.80;88.10;;;;;;5035330;28;20212;-91
2022/09/16 08:30:20;;;;;;;7.70;2.67;;;12.80;87.70;;;;;;5035282;28;20181;-91
2022/09/16 08:32:45;;;;;;;7.37;1.67;;;12.70;86.80;;;;;;5036728;28;20255;-90
2022/09/16 08:35:13;;;;;;;13.90;3.03;;;12.60;86.80;;;;;;5036470;28;20546;-91
2022/09/16 08:37:39;;;;;;;15.40;2.13;;;12.50;87.10;;;;;;5035378;28;20196;-91
2022/09/16 08:40:05;;;;;;;9.27;1.87;;;12.50;87.00;;;;;;5046830;28;20196;-92
2022/09/16 08:42:46;;;;;;;14.33;2.50;;;12.50;86.20;;;;;;5056834;28;20665;-93
2022/09/16 08:45:19;;;;;;;6.93;2.20;;;12.90;86.90;;;;;;5055731;28;20198;-92
2022/09/16 08:48:16;;;;;;;10.10;2.20;;;13.20;86.80;;;;;;5051295;28;20208;-91
2022/09/16 08:50:45;;;;;;;13.80;2.13;;;13.40;85.30;;;;;;5043184;28;20606;-89
2022/09/16 08:53:27;;;;;;;14.13;2.27;;;13.40;84.50;;;;;;5035882;28;20176;-92
2022/09/16 08:55:53;;;;;;;8.00;2.07;;;13.50;84.00;;;;;;5043475;28;20287;-90
2022/09/16 08:58:36;;;;;;;7.90;1.83;;;13.70;84.60;;;;;;5040556;28;20200;-93
2022/09/16 09:01:11;;;;;;;13.87;2.50;;;13.40;84.00;;;;;;5037992;28;20165;-91
2022/09/16 09:03:42;;;;;;;13.60;2.17;;;13.40;84.10;;;;;;5040071;28;20536;-91
2022/09/16 09:06:35;;;;;;;14.43;2.47;;;13.60;84.50;;;;;;5039431;28;20193;-90
2022/09/16 09:09:30;;;;;;;10.93;2.50;;;13.60;83.80;;;;;;5037367;28;20246;-91
2022/09/16 09:12:08;;;;;;;9.03;2.27;;;13.60;83.90;;;;;;5036940;28;20208;-89
2022/09/16 09:14:55;;;;;;;10.27;1.83;;;13.80;83.40;;;;;;5034069;28;20164;-89
2022/09/16 09:17:27;;;;;;;8.33;1.60;;;14.00;84.00;;;;;;5033976;28;20238;-89
2022/09/16 09:19:52;;;;;;;6.43;1.50;;;13.90;82.00;;;;;;5035417;28;20200;-90
2022/09/16 09:22:21;;;;;;;10.87;1.80;;;13.80;81.50;;;;;;5035172;28;20570;-90
2022/09/16 09:25:05;;;;;;;5.53;1.33;;;13.80;81.10;;;;;;5035169;28;20184;-91
2022/09/16 09:27:52;;;;;;;5.37;1.40;;;13.80;81.00;;;;;;5033779;28;20215;-89
2022/09/16 09:30:27;;;;;;;10.40;2.03;;;13.70;81.00;;;;;;5035359;28;20167;-89
2022/09/16 09:33:11;;;;;;;9.93;1.90;;;13.80;81.30;;;;;;5035235;28;20160;-91
2022/09/16 09:36:04;;;;;;;9.17;2.10;;;13.90;81.20;;;;;;5033813;28;20165;-89
2022/09/16 09:38:51;;;;;;;11.30;2.10;;;13.90;80.50;;;;;;5033743;28;20179;-89
2022/09/16 09:41:38;;;;;;;9.90;2.20;;;14.00;78.70;;;;;;5035749;28;20200;-91
2022/09/16 09:44:26;;;;;;;13.77;2.87;;;13.80;79.10;;;;;;5035989;28;20185;-89
2022/09/16 09:46:56;;;;;;;6.30;1.70;;;13.70;81.00;;;;;;5040064;28;20201;-90
2022/09/16 09:49:32;;;;;;;9.50;2.27;;;13.60;79.80;;;;;;5036272;28;20185;-87
2022/09/16 09:52:25;;;;;;;7.97;2.13;;;14.00;80.70;;;;;;5038508;28;20175;-92
2022/09/16 09:54:51;;;;;;;12.00;2.90;;;14.20;80.70;;;;;;5026391;28;20189;-89
2022/09/16 09:57:25;;;;;;;9.10;2.13;;;14.20;80.30;;;;;;5033414;28;20572;-89
2022/09/16 10:00:12;;;;;;;10.37;2.00;;;14.30;79.80;;;;;;5033815;28;20207;-90
2022/09/16 10:02:40;;;;;;;7.10;2.20;;;14.70;81.80;;;;;;5033926;28;20181;-89
2022/09/16 10:05:13;;;;;;;13.70;2.30;;;14.80;80.50;;;;;;5034548;28;20203;-89
2022/09/16 10:07:39;;;;;;;10.47;2.17;;;14.80;79.50;;;;;;5033963;28;20706;-89
2022/09/16 10:10:25;;;;;;;8.07;1.63;;;14.90;79.20;;;;;;5033285;28;20226;-90
2022/09/16 10:12:51;;;;;;;13.07;2.50;;;15.00;78.70;;;;;;5033514;28;20219;-89
2022/09/16 10:23:13;;;;;;;9.27;2.17;;;14.30;80.70;;;;;;5077296;28;20607;-88
2022/09/16 10:25:40;;;;;;;12.13;2.93;;;14.40;80.50;;;;;;5059268;28;20175;-88
2022/09/16 10:28:21;;;;;;;8.03;1.87;;;14.80;78.20;;;;;;5074914;28;20198;-90
2022/09/16 10:30:53;;;;;;;4.23;1.50;;;15.20;78.10;;;;;;5056970;28;20175;-90
2022/09/16 10:33:29;;;;;;;6.50;1.77;;;15.20;76.30;;;;;;5056475;28;20241;-90
2022/09/16 10:35:59;;;;;;;9.97;2.20;;;15.30;75.60;;;;;;5056352;28;20242;-88
2022/09/16 10:38:59;;;;;;;8.90;2.57;;;15.70;74.50;;;;;;5056513;28;20182;-89
2022/09/16 10:41:28;;;;;;;7.53;1.67;;;15.60;75.10;;;;;;5069924;28;20195;-91
2022/09/16 10:44:00;;;;;;;18.33;2.30;;;15.20;76.30;;;;;;5056637;28;20175;-91
2022/09/16 10:46:27;;;;;;;8.97;2.00;;;15.20;78.00;;;;;;5056208;28;20277;-91
2022/09/16 10:48:59;;;;;;;12.23;2.80;;;15.40;77.20;;;;;;5056588;28;20223;-90
2022/09/16 10:51:27;;;;;;;6.93;1.90;;;15.40;76.50;;;;;;5055812;28;20178;-90
2022/09/16 10:54:02;;;;;;;15.40;2.20;;;15.10;74.30;;;;;;5056665;28;20167;-89
2022/09/16 10:56:31;;;;;;;7.27;2.03;;;14.80;74.90;;;;;;5057086;28;20702;-90
2022/09/16 10:59:08;;;;;;;7.53;1.80;;;14.30;74.60;;;;;;5057643;28;20175;-91
2022/09/16 11:02:29;;;;;;;16.00;2.53;;;14.10;77.90;;;;;;5071756;28;20648;-92
2022/09/16 11:05:32;;;;;;;12.20;2.20;;;14.10;78.80;;;;;;5036273;28;20187;-90
2022/09/16 11:08:23;;;;;;;7.77;1.97;;;14.30;78.70;;;;;;5056552;28;20217;-89
2022/09/16 11:10:58;;;;;;;8.00;2.27;;;14.50;77.50;;;;;;5073951;28;20190;-89
2022/09/16 11:13:47;;;;;;;12.93;2.70;;;14.50;76.70;;;;;;5055996;28;20637;-89
2022/09/16 11:16:39;;;;;;;8.67;2.63;;;14.30;77.30;;;;;;5056237;28;20719;-89
2022/09/16 11:19:16;;;;;;;9.47;2.03;;;14.20;78.10;;;;;;5057018;28;20644;-89
2022/09/16 11:21:57;;;;;;;9.40;2.53;;;14.00;78.00;;;;;;5055876;28;20226;-90
2022/09/16 11:24:56;;;;;;;11.20;1.87;;;14.20;79.10;;;;;;5056799;28;20174;-89
2022/09/16 11:27:38;;;;;;;7.53;1.63;;;14.40;79.60;;;;;;5055931;28;20227;-89
2022/09/16 11:30:22;;;;;;;11.17;2.40;;;14.80;78.40;;;;;;5057552;28;20172;-85
2022/09/16 11:33:14;;;;;;;8.10;1.70;;;15.30;71.80;;;;;;5056939;28;20167;-87
2022/09/16 11:36:02;;;;;;;12.20;2.73;;;15.70;70.30;;;;;;5058491;28;20172;-89
2022/09/16 11:38:28;;;;;;;8.65;1.88;;;15.60;71.40;;;;;;5059009;28;20175;-90
2022/09/16 11:41:19;;;;;;;10.10;2.20;;;15.40;70.80;;;;;;5056836;28;20177;-87
2022/09/16 11:44:21;;;;;;;11.30;2.10;;;15.40;73.20;;;;;;5062973;28;20215;-87
2022/09/16 11:47:07;;;;;;;11.27;2.05;;;15.30;72.10;;;;;;5074279;28;20197;-89
2022/09/16 11:50:04;;;;;;;7.95;2.47;;;15.30;71.00;;;;;;5056205;28;20183;-88
2022/09/16 11:52:48;;;;;;;15.47;2.67;;;15.40;70.90;;;;;;5058505;28;20202;-88
2022/09/16 11:55:36;;;;;;;10.70;2.27;;;14.40;76.90;;;;;;5060956;28;20171;-88
2022/09/16 11:58:26;;;;;;;8.43;1.57;;;13.70;82.00;;;;;;5077682;28;20174;-89
2022/09/16 12:00:55;;;;;;;6.63;1.70;;;13.50;84.20;;;;;;5077474;28;20174;-87
2022/09/16 12:03:48;;;;;;;5.97;1.60;;;13.40;84.20;;;;;;5077313;28;20168;-88
2022/09/16 12:06:19;;;;;;;8.37;2.10;;;13.60;83.20;;;;;;5077059;28;20673;-87
2022/09/16 12:09:03;;;;;;;10.20;1.80;;;14.30;83.70;;;;;;5076936;28;20184;-89
2022/09/16 12:11:38;;;;;;;7.80;1.40;;;14.40;81.80;;;;;;5077303;28;20648;-89
2022/09/16 12:14:59;;;;;;;9.53;1.63;;;14.90;81.20;;;;;;5059406;28;20167;-89
2022/09/16 12:17:31;;;;;;;12.60;1.60;;;15.10;78.60;;;;;;5033767;28;20201;-92
2022/09/16 12:20:12;;;;;;;10.53;1.33;;;15.00;79.20;;;;;;5065003;28;20179;-92
2022/09/16 12:22:56;;;;;;;6.53;1.60;;;15.20;76.90;;;;;;5064626;28;20648;-90
2022/09/16 12:25:29;;;;;;;10.43;1.60;;;15.50;77.00;;;;;;5059806;28;20656;-87
2022/09/16 12:28:14;;;;;;;9.10;1.73;;;15.20;77.10;;;;;;5058968;28;20203;-88
2022/09/16 12:30:43;;;;;;;4.40;1.37;;;14.50;78.70;;;;;;5058744;28;20189;-90
2022/09/16 12:33:22;;;;;;;5.67;1.70;;;14.10;80.90;;;;;;5068278;28;20212;-93
2022/09/16 12:35:55;;;;;;;11.63;2.63;;;13.80;82.90;;;;;;5070145;28;20164;-90
2022/09/16 12:38:21;;;;;;;7.40;1.80;;;13.20;85.50;;;;;;5064144;28;20633;-90
2022/09/16 12:41:05;;;;;;;17.40;4.00;;;12.90;86.70;;;;;;5059646;28;20186;-90
2022/09/16 12:43:44;;;;;;;8.67;2.10;;;12.80;87.70;;;;;;5059695;28;20174;-89
2022/09/16 12:46:16;;;;;;;10.77;2.37;;;12.90;88.10;;;;;;5058935;28;20191;-90
2022/09/16 12:49:18;;;;;;;5.43;1.40;;;12.90;88.20;;;;;;5076958;28;20191;-88
2022/09/16 12:52:17;;;;;;;6.40;1.87;;;12.80;86.90;;;;;;5076312;28;20252;-91
2022/09/16 12:55:04;;;;;;;11.07;2.13;;;12.90;86.70;;;;;;5076363;28;20156;-89
2022/09/16 12:58:02;;;;;;;6.50;1.70;;;12.90;86.80;;;;;;5058486;28;20198;-91
2022/09/16 13:00:38;;;;;;;8.93;2.27;;;12.90;86.30;;;;;;5059259;28;20171;-92
2022/09/16 13:03:22;;;;;;;12.30;2.10;;;13.00;87.00;;;;;;5057920;28;20175;-90
2022/09/16 13:05:51;;;;;;;6.00;1.60;;;12.90;85.60;;;;;;5076206;28;20160;-90
2022/09/16 13:08:21;;;;;;;10.33;2.00;;;12.90;86.30;;;;;;5057602;28;20282;-91
2022/09/16 13:10:56;;;;;;;11.43;3.30;;;13.00;86.70;;;;;;5058767;28;20301;-90
2022/09/16 13:13:37;;;;;;;8.07;1.90;;;12.70;86.70;;;;;;5058051;28;20346;-89
2022/09/16 13:16:05;;;;;;;10.70;2.37;;;12.70;87.70;;;;;;5057566;28;20570;-91
2022/09/16 13:18:44;;;;;;;13.37;2.70;;;12.60;88.30;;;;;;5058057;28;20190;-91
2022/09/16 13:21:31;;;;;;;11.87;2.67;;;12.40;88.90;;;;;;5057929;28;20186;-90
2022/09/16 13:24:23;;;;;;;15.90;3.00;;;12.30;89.90;;;;;;5057618;28;20671;-89